TAF KPDX
AMD KPDX 090900Z 0909/1006 VRB02KT P6SM VCSH BKN035 OVC060 FM091100 22003KT P6SM -SHRA BKN025 OVC050 FM091800 24011KT P6SM -SHRA BKN025 OVC040 FM092300 23007KT P6SM -SHRA SCT020 BKN035 OVC045=
METAR KPDX
WC KPDX
WS KPDX
WV KPDX